sensor_id;sensor_type;location;lat;lon;timestamp;P1;durP1;ratioP1;P2;durP2;ratioP2
14247;SDS011;7208;49.826;6.004;2023-08-21T00:02:23;1.60;;;1.50;;
14247;SDS011;7208;49.826;6.004;2023-08-21T00:04:50;1.83;;;1.10;;
14247;SDS011;7208;49.826;6.004;2023-08-21T00:07:16;2.80;;;1.60;;
14247;SDS011;7208;49.826;6.004;2023-08-21T00:09:41;2.03;;;1.20;;
14247;SDS011;7208;49.826;6.004;2023-08-21T00:12:07;2.43;;;1.13;;
14247;SDS011;7208;49.826;6.004;2023-08-21T00:14:33;2.07;;;1.57;;
14247;SDS011;7208;49.826;6.004;2023-08-21T00:16:58;2.23;;;1.40;;
14247;SDS011;7208;49.826;6.004;2023-08-21T00:19:24;2.00;;;1.30;;
14247;SDS011;7208;49.826;6.004;2023-08-21T00:21:49;2.40;;;1.67;;
14247;SDS011;7208;49.826;6.004;2023-08-21T00:24:15;1.97;;;1.30;;
14247;SDS011;7208;49.826;6.004;2023-08-21T00:26:41;1.47;;;1.37;;
14247;SDS011;7208;49.826;6.004;2023-08-21T00:29:06;1.93;;;1.50;;
14247;SDS011;7208;49.826;6.004;2023-08-21T00:31:32;1.43;;;1.20;;
14247;SDS011;7208;49.826;6.004;2023-08-21T00:33:57;1.60;;;1.50;;
14247;SDS011;7208;49.826;6.004;2023-08-21T00:36:23;1.73;;;1.60;;
14247;SDS011;7208;49.826;6.004;2023-08-21T00:38:49;4.97;;;1.70;;
14247;SDS011;7208;49.826;6.004;2023-08-21T00:41:14;3.73;;;1.77;;
14247;SDS011;7208;49.826;6.004;2023-08-21T00:43:40;2.17;;;1.80;;
14247;SDS011;7208;49.826;6.004;2023-08-21T00:46:05;3.23;;;1.60;;
14247;SDS011;7208;49.826;6.004;2023-08-21T00:48:31;1.80;;;1.70;;
14247;SDS011;7208;49.826;6.004;2023-08-21T00:50:58;2.00;;;1.53;;
14247;SDS011;7208;49.826;6.004;2023-08-21T00:53:23;4.00;;;1.70;;
14247;SDS011;7208;49.826;6.004;2023-08-21T00:55:50;1.70;;;1.60;;
14247;SDS011;7208;49.826;6.004;2023-08-21T00:58:15;2.23;;;2.10;;
14247;SDS011;7208;49.826;6.004;2023-08-21T01:00:44;3.13;;;1.73;;
14247;SDS011;7208;49.826;6.004;2023-08-21T01:03:12;3.30;;;2.30;;
14247;SDS011;7208;49.826;6.004;2023-08-21T01:05:38;3.47;;;2.60;;
14247;SDS011;7208;49.826;6.004;2023-08-21T01:08:11;2.53;;;2.23;;
14247;SDS011;7208;49.826;6.004;2023-08-21T01:10:52;2.60;;;2.40;;
14247;SDS011;7208;49.826;6.004;2023-08-21T01:14:12;4.17;;;3.10;;
14247;SDS011;7208;49.826;6.004;2023-08-21T01:16:26;3.33;;;2.60;;
14247;SDS011;7208;49.826;6.004;2023-08-21T01:18:53;3.57;;;3.27;;
14247;SDS011;7208;49.826;6.004;2023-08-21T01:21:20;3.60;;;3.10;;
14247;SDS011;7208;49.826;6.004;2023-08-21T01:23:45;5.97;;;3.00;;
14247;SDS011;7208;49.826;6.004;2023-08-21T01:26:11;3.30;;;3.00;;
14247;SDS011;7208;49.826;6.004;2023-08-21T01:28:37;4.43;;;3.30;;
14247;SDS011;7208;49.826;6.004;2023-08-21T01:33:33;3.57;;;3.27;;
14247;SDS011;7208;49.826;6.004;2023-08-21T01:36:02;4.40;;;4.00;;
14247;SDS011;7208;49.826;6.004;2023-08-21T01:38:30;4.23;;;3.83;;
14247;SDS011;7208;49.826;6.004;2023-08-21T01:41:00;4.03;;;3.63;;
14247;SDS011;7208;49.826;6.004;2023-08-21T01:43:27;4.60;;;3.83;;
14247;SDS011;7208;49.826;6.004;2023-08-21T01:45:52;5.40;;;5.00;;
14247;SDS011;7208;49.826;6.004;2023-08-21T01:48:18;4.30;;;4.00;;
14247;SDS011;7208;49.826;6.004;2023-08-21T01:50:44;5.23;;;4.80;;
14247;SDS011;7208;49.826;6.004;2023-08-21T01:53:10;5.17;;;4.67;;
14247;SDS011;7208;49.826;6.004;2023-08-21T01:55:35;5.97;;;5.00;;
14247;SDS011;7208;49.826;6.004;2023-08-21T01:58:01;5.50;;;5.03;;
14247;SDS011;7208;49.826;6.004;2023-08-21T02:00:27;4.90;;;4.50;;
14247;SDS011;7208;49.826;6.004;2023-08-21T02:02:52;6.57;;;4.77;;
14247;SDS011;7208;49.826;6.004;2023-08-21T02:05:18;6.80;;;5.73;;
14247;SDS011;7208;49.826;6.004;2023-08-21T02:07:43;5.47;;;5.07;;
14247;SDS011;7208;49.826;6.004;2023-08-21T02:10:09;6.27;;;5.67;;
14247;SDS011;7208;49.826;6.004;2023-08-21T02:12:35;8.70;;;5.40;;
14247;SDS011;7208;49.826;6.004;2023-08-21T02:15:01;5.80;;;5.10;;
14247;SDS011;7208;49.826;6.004;2023-08-21T02:17:26;5.70;;;5.20;;
14247;SDS011;7208;49.826;6.004;2023-08-21T02:19:52;5.90;;;5.37;;
14247;SDS011;7208;49.826;6.004;2023-08-21T02:22:17;6.00;;;5.50;;
14247;SDS011;7208;49.826;6.004;2023-08-21T02:24:43;7.30;;;5.13;;
14247;SDS011;7208;49.826;6.004;2023-08-21T02:27:09;6.40;;;5.77;;
14247;SDS011;7208;49.826;6.004;2023-08-21T02:29:34;6.30;;;5.70;;
14247;SDS011;7208;49.826;6.004;2023-08-21T02:32:00;6.63;;;6.03;;
14247;SDS011;7208;49.826;6.004;2023-08-21T02:34:26;6.43;;;5.93;;
14247;SDS011;7208;49.826;6.004;2023-08-21T02:36:52;6.13;;;5.40;;
14247;SDS011;7208;49.826;6.004;2023-08-21T02:39:17;6.87;;;6.27;;
14247;SDS011;7208;49.826;6.004;2023-08-21T02:41:43;6.63;;;6.03;;
14247;SDS011;7208;49.826;6.004;2023-08-21T02:44:08;8.27;;;6.33;;
14247;SDS011;7208;49.826;6.004;2023-08-21T02:46:34;7.60;;;6.57;;
14247;SDS011;7208;49.826;6.004;2023-08-21T02:49:01;6.90;;;6.30;;
14247;SDS011;7208;49.826;6.004;2023-08-21T02:51:27;8.07;;;6.30;;
14247;SDS011;7208;49.826;6.004;2023-08-21T02:53:52;6.90;;;6.30;;
14247;SDS011;7208;49.826;6.004;2023-08-21T02:56:18;7.20;;;6.50;;
14247;SDS011;7208;49.826;6.004;2023-08-21T02:58:44;6.43;;;5.83;;
14247;SDS011;7208;49.826;6.004;2023-08-21T03:01:10;7.00;;;6.40;;
14247;SDS011;7208;49.826;6.004;2023-08-21T03:03:35;7.03;;;6.27;;
14247;SDS011;7208;49.826;6.004;2023-08-21T03:06:01;6.13;;;5.63;;
14247;SDS011;7208;49.826;6.004;2023-08-21T03:08:27;7.07;;;6.37;;
14247;SDS011;7208;49.826;6.004;2023-08-21T03:10:52;6.90;;;6.27;;
14247;SDS011;7208;49.826;6.004;2023-08-21T03:13:18;6.40;;;5.80;;
14247;SDS011;7208;49.826;6.004;2023-08-21T03:15:44;7.07;;;6.37;;
14247;SDS011;7208;49.826;6.004;2023-08-21T03:18:10;6.70;;;6.10;;
14247;SDS011;7208;49.826;6.004;2023-08-21T03:20:36;7.00;;;6.30;;
14247;SDS011;7208;49.826;6.004;2023-08-21T03:23:01;6.40;;;5.60;;
14247;SDS011;7208;49.826;6.004;2023-08-21T03:25:27;8.20;;;6.20;;
14247;SDS011;7208;49.826;6.004;2023-08-21T03:27:53;7.20;;;6.03;;
14247;SDS011;7208;49.826;6.004;2023-08-21T03:30:19;9.33;;;8.37;;
14247;SDS011;7208;49.826;6.004;2023-08-21T03:32:44;8.10;;;7.43;;
14247;SDS011;7208;49.826;6.004;2023-08-21T03:35:10;8.23;;;7.43;;
14247;SDS011;7208;49.826;6.004;2023-08-21T03:37:36;11.00;;;8.20;;
14247;SDS011;7208;49.826;6.004;2023-08-21T03:40:05;8.57;;;7.87;;
14247;SDS011;7208;49.826;6.004;2023-08-21T03:42:31;7.57;;;6.87;;
14247;SDS011;7208;49.826;6.004;2023-08-21T03:44:56;8.03;;;7.23;;
14247;SDS011;7208;49.826;6.004;2023-08-21T03:47:22;7.90;;;7.30;;
14247;SDS011;7208;49.826;6.004;2023-08-21T03:49:47;12.27;;;7.30;;
14247;SDS011;7208;49.826;6.004;2023-08-21T03:52:13;8.10;;;7.50;;
14247;SDS011;7208;49.826;6.004;2023-08-21T03:54:39;8.27;;;7.47;;
14247;SDS011;7208;49.826;6.004;2023-08-21T03:57:05;8.20;;;7.60;;
14247;SDS011;7208;49.826;6.004;2023-08-21T03:59:31;9.00;;;8.10;;
14247;SDS011;7208;49.826;6.004;2023-08-21T04:01:56;8.40;;;7.70;;
14247;SDS011;7208;49.826;6.004;2023-08-21T04:04:22;7.83;;;7.07;;
14247;SDS011;7208;49.826;6.004;2023-08-21T04:06:48;9.37;;;8.37;;
14247;SDS011;7208;49.826;6.004;2023-08-21T04:09:13;8.00;;;7.40;;
14247;SDS011;7208;49.826;6.004;2023-08-21T04:11:39;8.27;;;7.47;;
14247;SDS011;7208;49.826;6.004;2023-08-21T04:14:04;8.57;;;7.87;;
14247;SDS011;7208;49.826;6.004;2023-08-21T04:16:30;8.53;;;7.83;;
14247;SDS011;7208;49.826;6.004;2023-08-21T04:18:56;8.87;;;7.97;;
14247;SDS011;7208;49.826;6.004;2023-08-21T04:21:22;7.90;;;7.30;;
14247;SDS011;7208;49.826;6.004;2023-08-21T04:23:48;8.93;;;8.20;;
14247;SDS011;7208;49.826;6.004;2023-08-21T04:26:13;9.17;;;8.33;;
14247;SDS011;7208;49.826;6.004;2023-08-21T04:28:39;9.03;;;8.30;;
14247;SDS011;7208;49.826;6.004;2023-08-21T04:31:05;8.57;;;7.87;;
14247;SDS011;7208;49.826;6.004;2023-08-21T04:33:32;9.23;;;8.43;;
14247;SDS011;7208;49.826;6.004;2023-08-21T04:35:58;8.80;;;7.90;;
14247;SDS011;7208;49.826;6.004;2023-08-21T04:38:24;8.23;;;7.43;;
14247;SDS011;7208;49.826;6.004;2023-08-21T04:40:50;9.20;;;8.40;;
14247;SDS011;7208;49.826;6.004;2023-08-21T04:43:16;8.70;;;7.90;;
14247;SDS011;7208;49.826;6.004;2023-08-21T04:45:51;8.43;;;7.60;;
14247;SDS011;7208;49.826;6.004;2023-08-21T04:48:20;8.10;;;7.40;;
14247;SDS011;7208;49.826;6.004;2023-08-21T04:50:46;10.63;;;8.40;;
14247;SDS011;7208;49.826;6.004;2023-08-21T04:53:12;8.53;;;7.80;;
14247;SDS011;7208;49.826;6.004;2023-08-21T04:55:39;10.77;;;9.37;;
14247;SDS011;7208;49.826;6.004;2023-08-21T04:58:05;9.33;;;8.53;;
14247;SDS011;7208;49.826;6.004;2023-08-21T05:00:32;8.97;;;8.17;;
14247;SDS011;7208;49.826;6.004;2023-08-21T05:02:57;9.20;;;8.43;;
14247;SDS011;7208;49.826;6.004;2023-08-21T05:05:23;9.43;;;8.63;;
14247;SDS011;7208;49.826;6.004;2023-08-21T05:07:49;9.53;;;8.67;;
14247;SDS011;7208;49.826;6.004;2023-08-21T05:10:15;9.07;;;8.17;;
14247;SDS011;7208;49.826;6.004;2023-08-21T05:12:41;8.63;;;7.93;;
14247;SDS011;7208;49.826;6.004;2023-08-21T05:15:06;8.97;;;8.27;;
14247;SDS011;7208;49.826;6.004;2023-08-21T05:17:32;9.37;;;8.57;;
14247;SDS011;7208;49.826;6.004;2023-08-21T05:19:58;9.33;;;8.63;;
14247;SDS011;7208;49.826;6.004;2023-08-21T05:22:24;8.67;;;7.97;;
14247;SDS011;7208;49.826;6.004;2023-08-21T05:24:49;9.60;;;8.80;;
14247;SDS011;7208;49.826;6.004;2023-08-21T05:27:15;10.20;;;9.30;;
14247;SDS011;7208;49.826;6.004;2023-08-21T05:29:40;9.97;;;9.13;;
14247;SDS011;7208;49.826;6.004;2023-08-21T05:32:06;9.67;;;8.87;;
14247;SDS011;7208;49.826;6.004;2023-08-21T05:34:32;9.23;;;8.43;;
14247;SDS011;7208;49.826;6.004;2023-08-21T05:36:57;9.87;;;8.20;;
14247;SDS011;7208;49.826;6.004;2023-08-21T05:39:23;9.83;;;9.03;;
14247;SDS011;7208;49.826;6.004;2023-08-21T05:41:49;9.63;;;8.80;;
14247;SDS011;7208;49.826;6.004;2023-08-21T05:44:15;10.07;;;9.17;;
14247;SDS011;7208;49.826;6.004;2023-08-21T05:46:40;9.53;;;8.73;;
14247;SDS011;7208;49.826;6.004;2023-08-21T05:49:06;9.20;;;8.30;;
14247;SDS011;7208;49.826;6.004;2023-08-21T05:51:31;9.13;;;8.33;;
14247;SDS011;7208;49.826;6.004;2023-08-21T05:53:57;9.37;;;8.57;;
14247;SDS011;7208;49.826;6.004;2023-08-21T05:56:23;8.73;;;7.93;;
14247;SDS011;7208;49.826;6.004;2023-08-21T05:58:48;8.87;;;8.17;;
14247;SDS011;7208;49.826;6.004;2023-08-21T06:01:14;8.40;;;7.63;;
14247;SDS011;7208;49.826;6.004;2023-08-21T06:03:40;8.70;;;8.00;;
14247;SDS011;7208;49.826;6.004;2023-08-21T06:06:05;8.80;;;8.10;;
14247;SDS011;7208;49.826;6.004;2023-08-21T06:08:31;8.87;;;8.13;;
14247;SDS011;7208;49.826;6.004;2023-08-21T06:10:57;8.27;;;7.60;;
14247;SDS011;7208;49.826;6.004;2023-08-21T06:13:22;8.67;;;7.97;;
14247;SDS011;7208;49.826;6.004;2023-08-21T06:15:48;8.33;;;7.60;;
14247;SDS011;7208;49.826;6.004;2023-08-21T06:18:14;9.50;;;8.63;;
14247;SDS011;7208;49.826;6.004;2023-08-21T06:20:43;9.50;;;8.70;;
14247;SDS011;7208;49.826;6.004;2023-08-21T06:23:10;9.07;;;8.13;;
14247;SDS011;7208;49.826;6.004;2023-08-21T06:25:36;8.80;;;8.00;;
14247;SDS011;7208;49.826;6.004;2023-08-21T06:28:02;8.67;;;7.90;;
14247;SDS011;7208;49.826;6.004;2023-08-21T06:30:28;8.20;;;7.57;;
14247;SDS011;7208;49.826;6.004;2023-08-21T06:32:54;8.13;;;7.33;;
14247;SDS011;7208;49.826;6.004;2023-08-21T06:35:20;8.03;;;7.33;;
14247;SDS011;7208;49.826;6.004;2023-08-21T06:37:45;8.10;;;7.37;;
14247;SDS011;7208;49.826;6.004;2023-08-21T06:40:11;7.33;;;6.63;;
14247;SDS011;7208;49.826;6.004;2023-08-21T06:42:37;8.60;;;7.23;;
14247;SDS011;7208;49.826;6.004;2023-08-21T06:45:03;7.40;;;6.73;;
14247;SDS011;7208;49.826;6.004;2023-08-21T06:47:30;7.53;;;6.93;;
14247;SDS011;7208;49.826;6.004;2023-08-21T06:49:56;7.93;;;7.27;;
14247;SDS011;7208;49.826;6.004;2023-08-21T06:52:21;8.23;;;7.53;;
14247;SDS011;7208;49.826;6.004;2023-08-21T06:54:47;7.60;;;7.00;;
14247;SDS011;7208;49.826;6.004;2023-08-21T06:57:13;7.23;;;6.70;;
14247;SDS011;7208;49.826;6.004;2023-08-21T06:59:38;8.50;;;7.80;;
14247;SDS011;7208;49.826;6.004;2023-08-21T07:02:05;8.57;;;7.77;;
14247;SDS011;7208;49.826;6.004;2023-08-21T07:04:31;7.73;;;7.00;;
14247;SDS011;7208;49.826;6.004;2023-08-21T07:06:58;7.70;;;7.10;;
14247;SDS011;7208;49.826;6.004;2023-08-21T07:09:24;9.10;;;7.50;;
14247;SDS011;7208;49.826;6.004;2023-08-21T07:11:50;8.10;;;7.30;;
14247;SDS011;7208;49.826;6.004;2023-08-21T07:14:15;7.73;;;7.03;;
14247;SDS011;7208;49.826;6.004;2023-08-21T07:16:42;7.03;;;6.53;;
14247;SDS011;7208;49.826;6.004;2023-08-21T07:19:08;7.07;;;6.47;;
14247;SDS011;7208;49.826;6.004;2023-08-21T07:21:34;7.77;;;7.07;;
14247;SDS011;7208;49.826;6.004;2023-08-21T07:24:02;7.93;;;7.23;;
14247;SDS011;7208;49.826;6.004;2023-08-21T07:26:28;6.80;;;6.13;;
14247;SDS011;7208;49.826;6.004;2023-08-21T07:28:54;6.70;;;6.10;;
14247;SDS011;7208;49.826;6.004;2023-08-21T07:31:20;6.97;;;6.33;;
14247;SDS011;7208;49.826;6.004;2023-08-21T07:33:46;6.40;;;5.90;;
14247;SDS011;7208;49.826;6.004;2023-08-21T07:36:11;7.13;;;6.53;;
14247;SDS011;7208;49.826;6.004;2023-08-21T07:38:42;6.20;;;5.60;;
14247;SDS011;7208;49.826;6.004;2023-08-21T07:41:08;5.65;;;5.15;;
14247;SDS011;7208;49.826;6.004;2023-08-21T07:43:35;5.90;;;4.88;;
14247;SDS011;7208;49.826;6.004;2023-08-21T07:46:02;4.93;;;4.53;;
14247;SDS011;7208;49.826;6.004;2023-08-21T07:48:29;5.50;;;5.10;;
14247;SDS011;7208;49.826;6.004;2023-08-21T07:50:54;5.72;;;5.22;;
14247;SDS011;7208;49.826;6.004;2023-08-21T07:53:21;5.97;;;4.63;;
14247;SDS011;7208;49.826;6.004;2023-08-21T07:55:47;5.28;;;4.30;;
14247;SDS011;7208;49.826;6.004;2023-08-21T07:58:12;5.30;;;4.85;;
14247;SDS011;7208;49.826;6.004;2023-08-21T08:00:38;4.57;;;4.28;;
14247;SDS011;7208;49.826;6.004;2023-08-21T08:03:04;4.72;;;4.20;;
14247;SDS011;7208;49.826;6.004;2023-08-21T08:05:31;4.22;;;3.83;;
14247;SDS011;7208;49.826;6.004;2023-08-21T08:07:57;4.07;;;3.78;;
14247;SDS011;7208;49.826;6.004;2023-08-21T08:10:23;4.45;;;4.10;;
14247;SDS011;7208;49.826;6.004;2023-08-21T08:12:49;4.30;;;4.00;;
14247;SDS011;7208;49.826;6.004;2023-08-21T08:15:15;5.32;;;3.88;;
14247;SDS011;7208;49.826;6.004;2023-08-21T08:17:41;4.43;;;3.95;;
14247;SDS011;7208;49.826;6.004;2023-08-21T08:20:07;4.38;;;4.07;;
14247;SDS011;7208;49.826;6.004;2023-08-21T08:22:33;5.47;;;3.40;;
14247;SDS011;7208;49.826;6.004;2023-08-21T08:24:59;3.58;;;3.20;;
14247;SDS011;7208;49.826;6.004;2023-08-21T08:27:24;4.22;;;2.67;;
14247;SDS011;7208;49.826;6.004;2023-08-21T08:29:50;3.42;;;2.47;;
14247;SDS011;7208;49.826;6.004;2023-08-21T08:32:15;2.70;;;2.50;;
14247;SDS011;7208;49.826;6.004;2023-08-21T08:34:41;3.67;;;2.95;;
14247;SDS011;7208;49.826;6.004;2023-08-21T08:37:07;2.88;;;2.67;;
14247;SDS011;7208;49.826;6.004;2023-08-21T08:39:32;2.50;;;2.30;;
14247;SDS011;7208;49.826;6.004;2023-08-21T08:41:58;4.88;;;3.17;;
14247;SDS011;7208;49.826;6.004;2023-08-21T08:44:29;2.97;;;2.78;;
14247;SDS011;7208;49.826;6.004;2023-08-21T08:46:55;3.50;;;3.30;;
14247;SDS011;7208;49.826;6.004;2023-08-21T08:49:22;3.40;;;2.67;;
14247;SDS011;7208;49.826;6.004;2023-08-21T08:51:49;3.40;;;3.10;;
14247;SDS011;7208;49.826;6.004;2023-08-21T08:54:16;3.10;;;2.80;;
14247;SDS011;7208;49.826;6.004;2023-08-21T08:56:43;3.53;;;3.00;;
14247;SDS011;7208;49.826;6.004;2023-08-21T08:59:08;3.10;;;2.83;;
14247;SDS011;7208;49.826;6.004;2023-08-21T09:01:34;3.10;;;2.80;;
14247;SDS011;7208;49.826;6.004;2023-08-21T09:04:00;3.60;;;2.80;;
14247;SDS011;7208;49.826;6.004;2023-08-21T09:06:26;3.20;;;3.00;;
14247;SDS011;7208;49.826;6.004;2023-08-21T09:08:53;2.75;;;2.55;;
14247;SDS011;7208;49.826;6.004;2023-08-21T09:11:22;2.50;;;2.30;;
14247;SDS011;7208;49.826;6.004;2023-08-21T09:13:49;2.92;;;2.38;;
14247;SDS011;7208;49.826;6.004;2023-08-21T09:16:19;3.35;;;3.05;;
14247;SDS011;7208;49.826;6.004;2023-08-21T09:18:51;3.00;;;2.80;;
14247;SDS011;7208;49.826;6.004;2023-08-21T09:21:21;3.97;;;3.03;;
14247;SDS011;7208;49.826;6.004;2023-08-21T09:23:49;2.75;;;2.55;;
14247;SDS011;7208;49.826;6.004;2023-08-21T09:26:24;2.97;;;2.78;;
14247;SDS011;7208;49.826;6.004;2023-08-21T09:28:51;3.15;;;2.85;;
14247;SDS011;7208;49.826;6.004;2023-08-21T09:31:24;3.28;;;2.72;;
14247;SDS011;7208;49.826;6.004;2023-08-21T09:33:56;2.55;;;2.40;;
14247;SDS011;7208;49.826;6.004;2023-08-21T09:36:26;2.72;;;2.45;;
14247;SDS011;7208;49.826;6.004;2023-08-21T09:38:52;2.45;;;2.20;;
14247;SDS011;7208;49.826;6.004;2023-08-21T09:41:22;3.83;;;2.58;;
14247;SDS011;7208;49.826;6.004;2023-08-21T09:43:49;3.95;;;3.45;;
14247;SDS011;7208;49.826;6.004;2023-08-21T09:46:15;2.80;;;2.60;;
14247;SDS011;7208;49.826;6.004;2023-08-21T09:48:48;2.78;;;2.58;;
14247;SDS011;7208;49.826;6.004;2023-08-21T09:51:16;2.65;;;2.47;;
14247;SDS011;7208;49.826;6.004;2023-08-21T09:53:42;2.25;;;2.15;;
14247;SDS011;7208;49.826;6.004;2023-08-21T09:56:07;2.10;;;2.00;;
14247;SDS011;7208;49.826;6.004;2023-08-21T09:58:36;2.33;;;2.08;;
14247;SDS011;7208;49.826;6.004;2023-08-21T10:01:04;2.10;;;2.00;;
14247;SDS011;7208;49.826;6.004;2023-08-21T10:03:37;2.38;;;1.88;;
14247;SDS011;7208;49.826;6.004;2023-08-21T10:06:05;1.60;;;1.50;;
14247;SDS011;7208;49.826;6.004;2023-08-21T10:08:31;2.20;;;1.67;;
14247;SDS011;7208;49.826;6.004;2023-08-21T10:11:04;2.00;;;1.80;;
14247;SDS011;7208;49.826;6.004;2023-08-21T10:13:30;2.10;;;1.70;;
14247;SDS011;7208;49.826;6.004;2023-08-21T10:15:58;1.50;;;1.40;;
14247;SDS011;7208;49.826;6.004;2023-08-21T10:18:29;1.63;;;1.50;;
14247;SDS011;7208;49.826;6.004;2023-08-21T10:21:10;1.95;;;1.67;;
14247;SDS011;7208;49.826;6.004;2023-08-21T10:23:37;2.15;;;1.45;;
14247;SDS011;7208;49.826;6.004;2023-08-21T10:26:05;1.52;;;1.30;;
14247;SDS011;7208;49.826;6.004;2023-08-21T10:28:41;1.40;;;1.30;;
14247;SDS011;7208;49.826;6.004;2023-08-21T10:31:30;1.70;;;1.05;;
14247;SDS011;7208;49.826;6.004;2023-08-21T10:33:57;1.85;;;1.02;;
14247;SDS011;7208;49.826;6.004;2023-08-21T10:39:17;1.30;;;1.20;;
14247;SDS011;7208;49.826;6.004;2023-08-21T10:41:54;2.00;;;1.30;;
14247;SDS011;7208;49.826;6.004;2023-08-21T10:47:17;1.27;;;1.20;;
14247;SDS011;7208;49.826;6.004;2023-08-21T10:49:47;1.35;;;1.10;;
14247;SDS011;7208;49.826;6.004;2023-08-21T10:52:24;1.15;;;1.00;;
14247;SDS011;7208;49.826;6.004;2023-08-21T10:54:55;1.38;;;1.10;;
14247;SDS011;7208;49.826;6.004;2023-08-21T10:57:26;1.50;;;1.30;;
14247;SDS011;7208;49.826;6.004;2023-08-21T11:02:46;1.58;;;1.30;;
14247;SDS011;7208;49.826;6.004;2023-08-21T11:05:14;2.53;;;1.20;;
14247;SDS011;7208;49.826;6.004;2023-08-21T11:07:42;1.67;;;1.10;;
14247;SDS011;7208;49.826;6.004;2023-08-21T11:10:13;2.35;;;1.13;;
14247;SDS011;7208;49.826;6.004;2023-08-21T11:12:47;1.23;;;1.13;;
14247;SDS011;7208;49.826;6.004;2023-08-21T11:15:15;1.35;;;0.95;;
14247;SDS011;7208;49.826;6.004;2023-08-21T11:17:42;1.98;;;1.10;;
14247;SDS011;7208;49.826;6.004;2023-08-21T11:20:15;1.60;;;1.50;;
14247;SDS011;7208;49.826;6.004;2023-08-21T11:22:40;1.60;;;1.02;;
14247;SDS011;7208;49.826;6.004;2023-08-21T11:25:06;1.20;;;0.98;;
14247;SDS011;7208;49.826;6.004;2023-08-21T11:27:32;1.60;;;0.65;;
14247;SDS011;7208;49.826;6.004;2023-08-21T11:29:58;1.00;;;0.90;;
14247;SDS011;7208;49.826;6.004;2023-08-21T11:32:25;1.38;;;1.00;;
14247;SDS011;7208;49.826;6.004;2023-08-21T11:34:51;1.13;;;1.02;;
14247;SDS011;7208;49.826;6.004;2023-08-21T11:37:22;0.80;;;0.80;;
14247;SDS011;7208;49.826;6.004;2023-08-21T11:39:49;1.58;;;1.02;;
14247;SDS011;7208;49.826;6.004;2023-08-21T11:42:20;1.90;;;1.45;;
14247;SDS011;7208;49.826;6.004;2023-08-21T11:44:49;1.90;;;1.20;;
14247;SDS011;7208;49.826;6.004;2023-08-21T11:47:18;1.13;;;0.70;;
14247;SDS011;7208;49.826;6.004;2023-08-21T11:49:45;2.33;;;1.17;;
14247;SDS011;7208;49.826;6.004;2023-08-21T11:52:12;1.98;;;0.80;;
14247;SDS011;7208;49.826;6.004;2023-08-21T11:54:39;1.27;;;0.90;;
14247;SDS011;7208;49.826;6.004;2023-08-21T11:57:12;1.35;;;1.13;;
14247;SDS011;7208;49.826;6.004;2023-08-21T11:59:38;1.48;;;0.73;;
14247;SDS011;7208;49.826;6.004;2023-08-21T12:02:08;1.17;;;0.95;;
14247;SDS011;7208;49.826;6.004;2023-08-21T12:04:51;1.70;;;0.82;;
14247;SDS011;7208;49.826;6.004;2023-08-21T12:07:17;2.85;;;0.88;;
14247;SDS011;7208;49.826;6.004;2023-08-21T12:09:46;1.10;;;1.00;;
14247;SDS011;7208;49.826;6.004;2023-08-21T12:12:13;3.30;;;0.90;;
14247;SDS011;7208;49.826;6.004;2023-08-21T12:14:38;2.47;;;0.82;;
14247;SDS011;7208;49.826;6.004;2023-08-21T12:17:04;0.98;;;0.90;;
14247;SDS011;7208;49.826;6.004;2023-08-21T12:19:30;1.42;;;0.75;;
14247;SDS011;7208;49.826;6.004;2023-08-21T12:21:56;0.70;;;0.70;;
14247;SDS011;7208;49.826;6.004;2023-08-21T12:24:24;2.47;;;0.77;;
14247;SDS011;7208;49.826;6.004;2023-08-21T12:26:50;1.52;;;1.00;;
14247;SDS011;7208;49.826;6.004;2023-08-21T12:29:16;1.98;;;1.20;;
14247;SDS011;7208;49.826;6.004;2023-08-21T12:31:41;1.77;;;0.88;;
14247;SDS011;7208;49.826;6.004;2023-08-21T12:34:07;1.33;;;0.80;;
14247;SDS011;7208;49.826;6.004;2023-08-21T12:36:34;1.80;;;1.00;;
14247;SDS011;7208;49.826;6.004;2023-08-21T12:39:02;1.70;;;1.10;;
14247;SDS011;7208;49.826;6.004;2023-08-21T12:41:29;1.30;;;0.80;;
14247;SDS011;7208;49.826;6.004;2023-08-21T12:43:55;0.80;;;0.70;;
14247;SDS011;7208;49.826;6.004;2023-08-21T12:46:20;2.05;;;0.60;;
14247;SDS011;7208;49.826;6.004;2023-08-21T12:48:46;1.75;;;0.75;;
14247;SDS011;7208;49.826;6.004;2023-08-21T12:51:12;0.73;;;0.73;;
14247;SDS011;7208;49.826;6.004;2023-08-21T12:53:38;0.75;;;0.70;;
14247;SDS011;7208;49.826;6.004;2023-08-21T12:56:04;1.30;;;0.77;;
14247;SDS011;7208;49.826;6.004;2023-08-21T12:58:30;1.13;;;1.00;;
14247;SDS011;7208;49.826;6.004;2023-08-21T13:00:55;1.48;;;0.90;;
14247;SDS011;7208;49.826;6.004;2023-08-21T13:03:21;1.08;;;0.80;;
14247;SDS011;7208;49.826;6.004;2023-08-21T13:05:47;1.77;;;0.75;;
14247;SDS011;7208;49.826;6.004;2023-08-21T13:08:12;3.17;;;0.82;;
14247;SDS011;7208;49.826;6.004;2023-08-21T13:10:39;0.77;;;0.77;;
14247;SDS011;7208;49.826;6.004;2023-08-21T13:13:04;1.58;;;0.80;;
14247;SDS011;7208;49.826;6.004;2023-08-21T13:15:30;1.50;;;0.80;;
14247;SDS011;7208;49.826;6.004;2023-08-21T13:17:56;0.80;;;0.80;;
14247;SDS011;7208;49.826;6.004;2023-08-21T13:20:22;1.95;;;1.00;;
14247;SDS011;7208;49.826;6.004;2023-08-21T13:22:51;1.30;;;0.80;;
14247;SDS011;7208;49.826;6.004;2023-08-21T13:25:23;1.40;;;0.80;;
14247;SDS011;7208;49.826;6.004;2023-08-21T13:27:52;1.42;;;0.80;;
14247;SDS011;7208;49.826;6.004;2023-08-21T13:30:18;1.10;;;0.77;;
14247;SDS011;7208;49.826;6.004;2023-08-21T13:32:45;1.20;;;0.90;;
14247;SDS011;7208;49.826;6.004;2023-08-21T13:35:11;0.73;;;0.73;;
14247;SDS011;7208;49.826;6.004;2023-08-21T13:37:37;1.38;;;0.70;;
14247;SDS011;7208;49.826;6.004;2023-08-21T13:40:03;1.95;;;0.82;;
14247;SDS011;7208;49.826;6.004;2023-08-21T13:42:38;1.08;;;0.98;;
14247;SDS011;7208;49.826;6.004;2023-08-21T13:45:08;1.70;;;0.90;;
14247;SDS011;7208;49.826;6.004;2023-08-21T13:47:36;0.85;;;0.77;;
14247;SDS011;7208;49.826;6.004;2023-08-21T13:50:02;0.88;;;0.80;;
14247;SDS011;7208;49.826;6.004;2023-08-21T13:52:30;0.98;;;0.82;;
14247;SDS011;7208;49.826;6.004;2023-08-21T13:54:55;0.70;;;0.70;;
14247;SDS011;7208;49.826;6.004;2023-08-21T13:57:21;1.83;;;0.90;;
14247;SDS011;7208;49.826;6.004;2023-08-21T13:59:47;0.65;;;0.65;;
14247;SDS011;7208;49.826;6.004;2023-08-21T14:02:13;0.70;;;0.63;;
14247;SDS011;7208;49.826;6.004;2023-08-21T14:04:38;0.80;;;0.80;;
14247;SDS011;7208;49.826;6.004;2023-08-21T14:07:04;0.70;;;0.65;;
14247;SDS011;7208;49.826;6.004;2023-08-21T14:09:29;1.23;;;1.00;;
14247;SDS011;7208;49.826;6.004;2023-08-21T14:11:55;1.00;;;0.80;;
14247;SDS011;7208;49.826;6.004;2023-08-21T14:14:20;1.00;;;0.90;;
14247;SDS011;7208;49.826;6.004;2023-08-21T14:16:46;2.33;;;0.80;;
14247;SDS011;7208;49.826;6.004;2023-08-21T14:19:12;0.93;;;0.57;;
14247;SDS011;7208;49.826;6.004;2023-08-21T14:21:37;1.40;;;0.75;;
14247;SDS011;7208;49.826;6.004;2023-08-21T14:24:03;0.95;;;0.75;;
14247;SDS011;7208;49.826;6.004;2023-08-21T14:26:29;1.45;;;0.80;;
14247;SDS011;7208;49.826;6.004;2023-08-21T14:28:54;1.00;;;0.90;;
14247;SDS011;7208;49.826;6.004;2023-08-21T14:31:20;1.13;;;0.60;;
14247;SDS011;7208;49.826;6.004;2023-08-21T14:33:45;1.52;;;0.70;;
14247;SDS011;7208;49.826;6.004;2023-08-21T14:36:11;0.90;;;0.80;;
14247;SDS011;7208;49.826;6.004;2023-08-21T14:38:37;1.40;;;1.08;;
14247;SDS011;7208;49.826;6.004;2023-08-21T14:41:02;1.10;;;0.95;;
14247;SDS011;7208;49.826;6.004;2023-08-21T14:43:28;1.02;;;0.80;;
14247;SDS011;7208;49.826;6.004;2023-08-21T14:45:57;0.98;;;0.85;;
14247;SDS011;7208;49.826;6.004;2023-08-21T14:48:22;1.58;;;0.93;;
14247;SDS011;7208;49.826;6.004;2023-08-21T14:50:48;1.42;;;1.25;;
14247;SDS011;7208;49.826;6.004;2023-08-21T14:53:14;1.25;;;0.70;;
14247;SDS011;7208;49.826;6.004;2023-08-21T14:55:39;0.70;;;0.70;;
14247;SDS011;7208;49.826;6.004;2023-08-21T14:58:05;0.80;;;0.70;;
14247;SDS011;7208;49.826;6.004;2023-08-21T15:00:32;3.45;;;0.80;;
14247;SDS011;7208;49.826;6.004;2023-08-21T15:02:57;0.73;;;0.55;;
14247;SDS011;7208;49.826;6.004;2023-08-21T15:05:23;1.17;;;0.95;;
14247;SDS011;7208;49.826;6.004;2023-08-21T15:07:49;1.35;;;0.95;;
14247;SDS011;7208;49.826;6.004;2023-08-21T15:10:16;1.10;;;0.73;;